createdAt,value
2023-02-04T00:02:38.210Z,10.07
2023-02-04T00:06:40.004Z,10.07
2023-02-04T00:10:41.567Z,10.02
2023-02-04T00:14:43.219Z,10.02
2023-02-04T00:18:44.722Z,9.99
2023-02-04T00:22:46.373Z,10.01
2023-02-04T00:26:47.898Z,10.01
2023-02-04T00:30:49.454Z,9.99
2023-02-04T00:34:53.671Z,9.99
2023-02-04T00:38:55.179Z,9.99
2023-02-04T00:42:56.754Z,9.96
2023-02-04T00:46:58.352Z,9.96
2023-02-04T00:50:59.924Z,9.95
2023-02-04T00:55:01.618Z,9.92
2023-02-04T00:59:03.565Z,9.89
2023-02-04T01:03:05.146Z,9.89
2023-02-04T01:07:06.757Z,9.89
2023-02-04T01:11:08.288Z,9.83
2023-02-04T01:15:10.607Z,9.80
2023-02-04T01:19:12.783Z,9.77
2023-02-04T01:23:14.380Z,9.75
2023-02-04T01:27:16.259Z,9.75
2023-02-04T01:31:18.297Z,9.77
2023-02-04T01:35:19.970Z,9.77
2023-02-04T01:39:21.528Z,9.74
2023-02-04T01:43:23.286Z,9.74
2023-02-04T01:47:25.505Z,9.71
2023-02-04T01:51:29.701Z,9.71
2023-02-04T01:55:33.008Z,9.70
2023-02-04T01:59:34.784Z,9.70
2023-02-04T02:03:36.321Z,9.67
2023-02-04T02:07:38.274Z,9.58
2023-02-04T02:11:39.974Z,9.49
2023-02-04T02:15:41.979Z,9.32
2023-02-04T02:19:43.871Z,9.15
2023-02-04T02:24:01.066Z,9.03
2023-02-04T02:28:04.908Z,8.96
2023-02-04T02:32:08.519Z,8.89
2023-02-04T02:36:10.917Z,8.86
2023-02-04T02:40:13.956Z,8.82
2023-02-04T02:44:16.672Z,8.76
2023-02-04T02:48:18.704Z,8.68
2023-02-04T02:52:22.839Z,8.57
2023-02-04T02:56:24.389Z,8.50
2023-02-04T03:00:30.874Z,8.46
2023-02-04T03:04:38.056Z,8.43
2023-02-04T03:08:41.305Z,8.40
2023-02-04T03:12:43.511Z,8.39
2023-02-04T03:16:47.028Z,8.40
2023-02-04T03:20:50.978Z,8.36
2023-02-04T03:24:52.731Z,8.32
2023-02-04T03:28:54.823Z,8.32
2023-02-04T03:32:56.439Z,8.28
2023-02-04T03:36:57.943Z,8.27
2023-02-04T03:40:59.757Z,8.27
2023-02-04T03:45:01.355Z,8.27
2023-02-04T03:49:02.977Z,8.27
2023-02-04T03:53:04.570Z,8.21
2023-02-04T03:57:06.202Z,8.22
2023-02-04T04:01:07.735Z,8.21
2023-02-04T04:05:10.106Z,8.21
2023-02-04T04:09:11.654Z,8.25
2023-02-04T04:13:13.211Z,8.24
2023-02-04T04:17:14.775Z,8.28
2023-02-04T04:21:16.344Z,8.27
2023-02-04T04:25:18.095Z,8.28
2023-02-04T04:29:19.605Z,8.28
2023-02-04T04:33:21.176Z,8.27
2023-02-04T04:37:22.728Z,8.29
2023-02-04T04:41:24.238Z,8.29
2023-02-04T04:45:25.846Z,8.29
2023-02-04T04:49:27.455Z,8.32
2023-02-04T04:53:29.002Z,8.36
2023-02-04T04:57:30.689Z,8.37
2023-02-04T05:01:32.626Z,8.40
2023-02-04T05:05:39.787Z,8.37
2023-02-04T05:09:41.341Z,8.32
2023-02-04T05:13:42.868Z,8.29
2023-02-04T05:17:44.455Z,8.28
2023-02-04T05:21:45.987Z,8.28
2023-02-04T05:25:47.559Z,8.32
2023-02-04T05:29:49.197Z,8.31
2023-02-04T05:33:50.796Z,8.29
2023-02-04T05:37:52.348Z,8.25
2023-02-04T05:41:53.955Z,8.21
2023-02-04T05:45:55.565Z,8.21
2023-02-04T05:49:57.172Z,8.20
2023-02-04T05:53:58.710Z,8.14
2023-02-04T05:58:00.367Z,8.10
2023-02-04T06:02:01.895Z,8.09
2023-02-04T06:06:03.429Z,8.07
2023-02-04T06:10:05.196Z,8.04
2023-02-04T06:14:07.088Z,8.04
2023-02-04T06:18:09.002Z,8.00
2023-02-04T06:22:10.509Z,7.99
2023-02-04T06:26:12.174Z,7.99
2023-02-04T06:30:14.651Z,7.95
2023-02-04T06:34:16.296Z,7.95
2023-02-04T06:38:17.970Z,7.94
2023-02-04T06:42:19.631Z,7.92
2023-02-04T06:46:21.365Z,7.89
2023-02-04T06:50:22.934Z,7.88
2023-02-04T06:54:24.564Z,7.89
2023-02-04T06:58:26.207Z,7.94
2023-02-04T07:02:27.848Z,7.91
2023-02-04T07:06:29.504Z,7.92
2023-02-04T07:10:32.681Z,7.95
2023-02-04T07:14:34.891Z,7.95
2023-02-04T07:18:36.437Z,7.96
2023-02-04T07:22:37.987Z,7.96
2023-02-04T07:26:39.606Z,8.00
2023-02-04T07:30:41.299Z,7.96
2023-02-04T07:34:42.897Z,7.94
2023-02-04T07:38:44.460Z,8.02
2023-02-04T07:42:46.104Z,8.04
2023-02-04T07:46:52.524Z,8.04
2023-02-04T07:50:54.049Z,8.03
2023-02-04T07:54:55.579Z,8.03
2023-02-04T07:58:57.235Z,8.04
2023-02-04T08:02:58.942Z,8.02
2023-02-04T08:07:00.546Z,8.06
2023-02-04T08:11:02.129Z,8.07
2023-02-04T08:15:04.423Z,8.13
2023-02-04T08:19:05.952Z,8.14
2023-02-04T08:23:07.506Z,8.18
2023-02-04T08:27:09.174Z,8.22
2023-02-04T08:31:11.948Z,8.27
2023-02-04T08:35:13.726Z,8.28
2023-02-04T08:39:15.400Z,8.39
2023-02-04T08:43:16.999Z,8.45
2023-02-04T08:47:18.581Z,8.47
2023-02-04T08:51:20.491Z,8.52
2023-02-04T08:55:22.180Z,8.57
2023-02-04T08:59:24.240Z,8.63
2023-02-04T09:03:25.898Z,8.67
2023-02-04T09:07:27.402Z,8.78
2023-02-04T09:11:28.965Z,8.82
2023-02-04T09:15:30.591Z,8.89
2023-02-04T09:19:32.198Z,8.97
2023-02-04T09:23:33.859Z,9.01
2023-02-04T09:27:35.422Z,9.08
2023-02-04T09:31:37.048Z,9.13
2023-02-04T09:35:38.893Z,9.20
2023-02-04T09:39:40.414Z,9.22
2023-02-04T09:43:44.931Z,9.27
2023-02-04T09:47:46.605Z,9.37
2023-02-04T09:51:49.869Z,9.41
2023-02-04T09:55:52.312Z,9.48
2023-02-04T09:59:54.224Z,9.48
2023-02-04T10:04:00.877Z,9.45
2023-02-04T10:08:04.898Z,9.56
2023-02-04T10:12:07.120Z,9.62
2023-02-04T10:16:14.808Z,9.62
2023-02-04T10:20:17.977Z,9.62
2023-02-04T10:24:26.261Z,9.70
2023-02-04T10:28:37.635Z,9.73
2023-02-04T10:32:39.219Z,9.81
2023-02-04T10:36:45.778Z,9.89
2023-02-04T10:40:47.680Z,9.93
2023-02-04T10:44:49.481Z,9.99
2023-02-04T10:48:51.094Z,10.09
2023-02-04T10:52:55.471Z,10.17
2023-02-04T10:57:23.302Z,10.26
2023-02-04T11:01:28.563Z,10.34
2023-02-04T11:05:33.179Z,10.42
2023-02-04T11:09:34.880Z,10.42
2023-02-04T11:13:49.896Z,10.39
2023-02-04T11:18:02.561Z,10.43
2023-02-04T11:22:29.095Z,10.36
2023-02-04T11:26:51.714Z,10.31
2023-02-04T11:31:05.985Z,10.25
2023-02-04T11:35:13.299Z,10.14
2023-02-04T11:39:17.363Z,10.07
2023-02-04T11:43:21.088Z,10.13
2023-02-04T11:47:25.083Z,10.14
2023-02-04T11:51:35.468Z,10.11
2023-02-04T11:55:47.230Z,10.17
2023-02-04T11:59:49.072Z,10.32
2023-02-04T12:03:57.164Z,10.44
2023-02-04T12:08:11.784Z,10.52
2023-02-04T12:12:23.807Z,10.66
2023-02-04T12:16:26.292Z,10.70
2023-02-04T12:20:27.868Z,10.65
2023-02-04T12:24:29.423Z,10.60
2023-02-04T12:28:31.042Z,10.63
2023-02-04T12:32:32.591Z,10.60
2023-02-04T12:36:34.160Z,10.57
2023-02-04T12:40:36.232Z,10.52
2023-02-04T12:44:37.968Z,10.49
2023-02-04T12:48:41.096Z,10.51
2023-02-04T12:52:42.676Z,10.55
2023-02-04T12:56:44.251Z,10.63
2023-02-04T13:00:45.865Z,10.70
2023-02-04T13:04:47.409Z,10.72
2023-02-04T13:08:48.992Z,10.70
2023-02-04T13:12:51.354Z,10.87
2023-02-04T13:16:52.933Z,11.21
2023-02-04T13:20:54.472Z,11.24
2023-02-04T13:24:56.144Z,11.35
2023-02-04T13:28:57.748Z,11.24
2023-02-04T13:32:59.603Z,11.16
2023-02-04T13:37:01.764Z,11.21
2023-02-04T13:41:03.400Z,11.23
2023-02-04T13:45:07.649Z,11.16
2023-02-04T13:49:09.318Z,11.26
2023-02-04T13:53:10.950Z,11.31
2023-02-04T13:57:12.657Z,11.46
2023-02-04T14:01:14.733Z,11.48
2023-02-04T14:05:16.378Z,11.45
2023-02-04T14:09:21.629Z,11.35
2023-02-04T14:13:23.368Z,11.41
2023-02-04T14:17:25.403Z,11.39
2023-02-04T14:21:27.156Z,11.36
2023-02-04T14:25:28.980Z,11.28
2023-02-04T14:29:30.521Z,11.16
2023-02-04T14:33:32.140Z,11.01
2023-02-04T14:37:33.709Z,10.90
2023-02-04T14:41:35.262Z,10.84
2023-02-04T14:45:38.074Z,10.73
2023-02-04T14:49:39.720Z,10.73
2023-02-04T14:53:46.045Z,10.60
2023-02-04T14:57:49.855Z,10.60
2023-02-04T15:01:51.458Z,10.54
2023-02-04T15:05:53.084Z,10.55
2023-02-04T15:09:54.621Z,10.46
2023-02-04T15:13:56.262Z,10.42
2023-02-04T15:17:57.787Z,10.31
2023-02-04T15:21:59.503Z,10.22
2023-02-04T15:26:01.138Z,10.11
2023-02-04T15:30:02.828Z,10.01
2023-02-04T15:34:06.014Z,9.95
2023-02-04T15:38:07.957Z,9.88
2023-02-04T15:42:10.161Z,9.80
2023-02-04T15:46:11.773Z,9.74
2023-02-04T15:50:15.186Z,9.71
2023-02-04T15:54:16.893Z,9.65
2023-02-04T15:58:18.532Z,9.62
2023-02-04T16:02:20.156Z,9.55
2023-02-04T16:06:22.678Z,9.50
2023-02-04T16:10:25.265Z,9.42
2023-02-04T16:14:26.864Z,9.37
2023-02-04T16:18:28.435Z,9.30
2023-02-04T16:22:30.584Z,9.22
2023-02-04T16:26:32.313Z,9.12
2023-02-04T16:30:33.946Z,9.10
2023-02-04T16:34:35.542Z,9.04
2023-02-04T16:38:38.829Z,8.98
2023-02-04T16:42:40.467Z,8.94
2023-02-04T16:46:42.387Z,8.94
2023-02-04T16:50:44.350Z,8.91
2023-02-04T16:54:45.865Z,8.88
2023-02-04T16:58:48.317Z,8.83
2023-02-04T17:02:50.110Z,8.73
2023-02-04T17:06:52.509Z,8.68
2023-02-04T17:11:12.781Z,8.61
2023-02-04T17:15:14.419Z,8.54
2023-02-04T17:19:21.136Z,8.47
2023-02-04T17:23:22.850Z,8.40
2023-02-04T17:27:24.370Z,8.34
2023-02-04T17:31:26.040Z,8.29
2023-02-04T17:35:27.767Z,8.25
2023-02-04T17:39:29.382Z,8.21
2023-02-04T17:43:31.072Z,8.06
2023-02-04T17:47:33.197Z,7.96
2023-02-04T17:51:35.325Z,7.91
2023-02-04T17:55:39.418Z,7.88
2023-02-04T17:59:41.162Z,7.86
2023-02-04T18:03:43.797Z,7.82
2023-02-04T18:08:19.306Z,7.77
2023-02-04T18:12:21.050Z,7.77
2023-02-04T18:16:30.850Z,7.69
2023-02-04T18:20:32.706Z,7.66
2023-02-04T18:24:36.266Z,7.58
2023-02-04T18:28:42.110Z,7.52
2023-02-04T18:32:44.157Z,7.54
2023-02-04T18:36:45.940Z,7.52
2023-02-04T18:40:48.316Z,7.45
2023-02-04T18:44:50.186Z,7.50
2023-02-04T18:49:02.238Z,7.48
2023-02-04T18:53:12.929Z,7.50
2023-02-04T18:57:16.038Z,7.52
2023-02-04T19:01:29.585Z,7.51
2023-02-04T19:05:46.556Z,7.48
2023-02-04T19:09:48.246Z,7.51
2023-02-04T19:13:52.935Z,7.52
2023-02-04T19:17:59.189Z,7.54
2023-02-04T19:22:01.710Z,7.55
2023-02-04T19:26:22.674Z,7.57
2023-02-04T19:30:27.466Z,7.52
2023-02-04T19:34:33.719Z,7.57
2023-02-04T19:38:42.965Z,7.58
2023-02-04T19:42:45.150Z,7.60
2023-02-04T19:46:46.696Z,7.63
2023-02-04T19:50:52.696Z,7.66
2023-02-04T19:54:54.572Z,7.62
2023-02-04T19:58:57.632Z,7.60
2023-02-04T20:03:00.078Z,7.60
2023-02-04T20:07:01.664Z,7.57
2023-02-04T20:11:35.448Z,7.55
2023-02-04T20:15:37.302Z,7.51
2023-02-04T20:19:41.092Z,7.50
2023-02-04T20:23:42.660Z,7.48
2023-02-04T20:27:44.291Z,7.48
2023-02-04T20:31:45.950Z,7.47
2023-02-04T20:35:50.652Z,7.44
2023-02-04T20:39:52.410Z,7.44
2023-02-04T20:43:54.290Z,7.44
2023-02-04T20:48:24.933Z,7.42
2023-02-04T20:52:43.885Z,7.39
2023-02-04T20:56:45.545Z,7.36
2023-02-04T21:00:52.101Z,7.36
2023-02-04T21:04:54.658Z,7.32
2023-02-04T21:08:58.537Z,7.34
2023-02-04T21:13:01.531Z,7.30
2023-02-04T21:17:03.635Z,7.23
2023-02-04T21:21:07.821Z,7.18
2023-02-04T21:25:09.495Z,7.18
2023-02-04T21:29:11.517Z,7.18
2023-02-04T21:33:14.875Z,7.18
2023-02-04T21:37:18.178Z,7.18
2023-02-04T21:41:20.719Z,7.12
2023-02-04T21:45:24.177Z,7.15
2023-02-04T21:49:25.825Z,7.18
2023-02-04T21:53:27.658Z,7.15
2023-02-04T21:57:29.297Z,7.09
2023-02-04T22:01:31.043Z,7.05
2023-02-04T22:05:32.793Z,6.99
2023-02-04T22:09:34.536Z,6.91
2023-02-04T22:13:54.672Z,6.83
2023-02-04T22:17:56.391Z,6.79
2023-02-04T22:21:57.981Z,6.75
2023-02-04T22:25:59.632Z,6.72
2023-02-04T22:30:03.230Z,6.64
2023-02-04T22:34:05.487Z,6.61
2023-02-04T22:38:07.040Z,6.54
2023-02-04T22:42:08.674Z,6.50
2023-02-04T22:46:10.264Z,6.39
2023-02-04T22:50:11.821Z,6.36
2023-02-04T22:54:13.666Z,6.30
2023-02-04T22:58:15.226Z,6.27
2023-02-04T23:02:16.957Z,6.27
2023-02-04T23:06:18.729Z,6.21
2023-02-04T23:10:20.356Z,6.19
2023-02-04T23:14:22.080Z,6.13
2023-02-04T23:18:23.790Z,6.06
2023-02-04T23:22:25.374Z,6.01
2023-02-04T23:26:27.076Z,5.99
2023-02-04T23:30:28.693Z,5.92
2023-02-04T23:34:30.991Z,5.88
2023-02-04T23:38:32.728Z,5.84
2023-02-04T23:42:34.306Z,5.80
2023-02-04T23:46:35.965Z,5.78
2023-02-04T23:50:37.604Z,5.70
2023-02-04T23:54:40.018Z,5.69
2023-02-04T23:58:41.593Z,5.60
